createdAt,value
2022-09-11T00:01:56.333Z,98413.33
2022-09-11T00:04:27.050Z,98412.57
2022-09-11T00:06:55.524Z,98410.34
2022-09-11T00:09:24.318Z,98408.20
2022-09-11T00:11:53.348Z,98408.65
2022-09-11T00:14:21.820Z,98408.08
2022-09-11T00:16:50.823Z,98410.52
2022-09-11T00:19:20.282Z,98408.78
2022-09-11T00:21:50.821Z,98415.30
2022-09-11T00:24:19.697Z,98415.91
2022-09-11T00:26:48.777Z,98419.48
2022-09-11T00:29:17.298Z,98415.92
2022-09-11T00:31:46.147Z,98412.83
2022-09-11T00:34:15.672Z,98412.21
2022-09-11T00:36:44.559Z,98410.21
2022-09-11T00:39:14.637Z,98410.11
2022-09-11T00:41:45.225Z,98412.16
2022-09-11T00:44:16.592Z,98408.30
2022-09-11T00:46:49.248Z,98408.54
2022-09-11T00:49:32.985Z,98409.52
2022-09-11T00:52:22.891Z,98405.90
2022-09-11T00:55:00.878Z,98406.33
2022-09-11T00:57:33.820Z,98405.11
2022-09-11T01:00:03.199Z,98410.91
2022-09-11T01:02:35.475Z,98411.19
2022-09-11T01:05:04.894Z,98410.17
2022-09-11T01:07:35.909Z,98409.30
2022-09-11T01:10:07.157Z,98411.92
2022-09-11T01:12:53.763Z,98413.13
2022-09-11T01:15:35.019Z,98405.73
2022-09-11T01:18:04.224Z,98405.16
2022-09-11T01:20:51.667Z,98403.81
2022-09-11T01:23:23.153Z,98398.21
2022-09-11T01:26:20.751Z,98396.64
2022-09-11T01:29:10.808Z,98388.30
2022-09-11T01:32:19.906Z,98385.39
2022-09-11T01:35:03.989Z,98384.91
2022-09-11T01:37:48.209Z,98387.35
2022-09-11T01:40:24.881Z,98387.34
2022-09-11T01:43:00.221Z,98389.56
2022-09-11T01:45:30.424Z,98389.61
2022-09-11T01:48:01.095Z,98387.33
2022-09-11T01:50:32.044Z,98389.58
2022-09-11T01:53:05.948Z,98389.42
2022-09-11T01:55:49.433Z,98385.30
2022-09-11T01:58:30.233Z,98384.83
2022-09-11T02:01:19.939Z,98383.69
2022-09-11T02:04:01.303Z,98380.67
2022-09-11T02:06:35.793Z,98379.61
2022-09-11T02:09:10.078Z,98379.48
2022-09-11T02:11:42.719Z,98377.59
2022-09-11T02:14:37.934Z,98376.87
2022-09-11T02:17:24.908Z,98374.92
2022-09-11T02:19:57.673Z,98369.05
2022-09-11T02:22:26.901Z,98370.38
2022-09-11T02:24:55.929Z,98368.29
2022-09-11T02:27:28.087Z,98367.63
2022-09-11T02:30:00.701Z,98369.20
2022-09-11T02:32:33.457Z,98370.00
2022-09-11T02:35:03.106Z,98370.23
2022-09-11T02:37:49.779Z,98368.25
2022-09-11T02:40:32.270Z,98363.14
2022-09-11T02:43:09.975Z,98361.71
2022-09-11T02:46:07.308Z,98362.77
2022-09-11T02:49:08.333Z,98361.80
2022-09-11T02:52:14.987Z,98364.82
2022-09-11T02:55:04.505Z,98369.56
2022-09-11T02:57:40.196Z,98363.92
2022-09-11T03:00:10.661Z,98368.68
2022-09-11T03:02:43.338Z,98366.63
2022-09-11T03:05:13.876Z,98375.80
2022-09-11T03:07:43.333Z,98377.23
2022-09-11T03:10:12.201Z,98383.11
2022-09-11T03:12:42.449Z,98378.48
2022-09-11T03:15:11.923Z,98383.59
2022-09-11T03:17:40.704Z,98386.48
2022-09-11T03:20:09.553Z,98389.43
2022-09-11T03:22:40.038Z,98392.14
2022-09-11T03:25:09.034Z,98394.41
2022-09-11T03:27:40.200Z,98399.09
2022-09-11T03:30:10.201Z,98403.27
2022-09-11T03:32:38.922Z,98405.02
2022-09-11T03:35:07.972Z,98409.30
2022-09-11T03:37:36.589Z,98411.67
2022-09-11T03:40:06.016Z,98415.04
2022-09-11T03:42:34.883Z,98415.84
2022-09-11T03:45:04.495Z,98414.52
2022-09-11T03:47:34.812Z,98413.05
2022-09-11T03:50:03.931Z,98410.55
2022-09-11T03:52:35.173Z,98415.22
2022-09-11T03:55:08.130Z,98411.72
2022-09-11T03:57:38.965Z,98407.70
2022-09-11T04:00:08.768Z,98407.33
2022-09-11T04:02:50.829Z,98410.79
2022-09-11T04:05:34.237Z,98412.24
2022-09-11T04:08:03.555Z,98417.02
2022-09-11T04:10:34.884Z,98418.44
2022-09-11T04:13:04.842Z,98419.09
2022-09-11T04:15:33.338Z,98419.40
2022-09-11T04:18:06.212Z,98415.41
2022-09-11T04:20:39.257Z,98414.80
2022-09-11T04:23:08.253Z,98414.64
2022-09-11T04:25:36.965Z,98417.31
2022-09-11T04:28:05.532Z,98415.23
2022-09-11T04:30:39.042Z,98417.96
2022-09-11T04:33:08.560Z,98417.34
2022-09-11T04:35:40.212Z,98419.25
2022-09-11T04:38:09.426Z,98418.65
2022-09-11T04:40:39.557Z,98420.79
2022-09-11T04:43:08.600Z,98417.40
2022-09-11T04:45:39.727Z,98413.86
2022-09-11T04:48:08.390Z,98412.36
2022-09-11T04:50:36.942Z,98414.63
2022-09-11T04:53:14.229Z,98414.96
2022-09-11T04:55:43.223Z,98409.73
2022-09-11T04:58:11.962Z,98405.08
2022-09-11T05:00:41.576Z,98404.18
2022-09-11T05:03:10.492Z,98404.83
2022-09-11T05:05:39.451Z,98402.48
2022-09-11T05:08:09.087Z,98403.27
2022-09-11T05:10:39.625Z,98401.92
2022-09-11T05:13:09.518Z,98405.15
2022-09-11T05:15:38.960Z,98408.51
2022-09-11T05:18:07.895Z,98409.13
2022-09-11T05:20:36.497Z,98408.88
2022-09-11T05:23:05.696Z,98408.55
2022-09-11T05:25:37.685Z,98409.36
2022-09-11T05:28:06.552Z,98410.92
2022-09-11T05:30:35.346Z,98418.29
2022-09-11T05:33:05.698Z,98422.44
2022-09-11T05:35:34.043Z,98426.39
2022-09-11T05:38:02.565Z,98424.38
2022-09-11T05:40:31.854Z,98420.92
2022-09-11T05:43:01.240Z,98425.95
2022-09-11T05:45:30.141Z,98426.05
2022-09-11T05:47:59.450Z,98428.64
2022-09-11T05:50:28.000Z,98432.41
2022-09-11T05:52:56.791Z,98437.00
2022-09-11T05:55:25.823Z,98439.15
2022-09-11T05:57:55.244Z,98444.05
2022-09-11T06:00:24.068Z,98440.75
2022-09-11T06:02:59.696Z,98443.63
2022-09-11T06:05:31.153Z,98445.82
2022-09-11T06:08:02.259Z,98450.62
2022-09-11T06:10:31.029Z,98451.87
2022-09-11T06:13:00.756Z,98455.25
2022-09-11T06:15:46.164Z,98456.80
2022-09-11T06:18:16.805Z,98459.86
2022-09-11T06:20:59.559Z,98460.19
2022-09-11T06:23:28.685Z,98462.44
2022-09-11T06:26:09.667Z,98467.13
2022-09-11T06:28:40.795Z,98464.46
2022-09-11T06:31:18.704Z,98467.63
2022-09-11T06:33:48.339Z,98466.40
2022-09-11T06:36:20.073Z,98467.33
2022-09-11T06:38:57.164Z,98471.53
2022-09-11T06:41:28.864Z,98469.41
2022-09-11T06:44:10.206Z,98469.80
2022-09-11T06:46:41.046Z,98468.19
2022-09-11T06:49:12.225Z,98468.14
2022-09-11T06:52:00.117Z,98471.04
2022-09-11T06:54:29.573Z,98472.70
2022-09-11T06:56:58.214Z,98470.92
2022-09-11T06:59:27.305Z,98474.49
2022-09-11T07:01:55.969Z,98473.39
2022-09-11T07:04:24.631Z,98473.88
2022-09-11T07:06:53.673Z,98480.04
2022-09-11T07:09:24.233Z,98478.39
2022-09-11T07:11:56.260Z,98475.13
2022-09-11T07:14:26.243Z,98478.19
2022-09-11T07:17:01.549Z,98477.13
2022-09-11T07:19:30.338Z,98472.77
2022-09-11T07:22:00.033Z,98472.59
2022-09-11T07:24:30.347Z,98476.48
2022-09-11T07:26:59.164Z,98480.01
2022-09-11T07:29:32.236Z,98477.48
2022-09-11T07:32:01.140Z,98478.73
2022-09-11T07:34:29.844Z,98485.10
2022-09-11T07:36:59.842Z,98479.73
2022-09-11T07:39:28.647Z,98482.94
2022-09-11T07:42:08.132Z,98480.81
2022-09-11T07:44:38.276Z,98482.14
2022-09-11T07:47:06.984Z,98481.45
2022-09-11T07:49:41.134Z,98483.89
2022-09-11T07:52:12.619Z,98483.23
2022-09-11T07:54:51.439Z,98481.54
2022-09-11T07:57:22.408Z,98481.18
2022-09-11T07:59:52.056Z,98480.27
2022-09-11T08:02:21.310Z,98485.58
2022-09-11T08:04:51.945Z,98487.95
2022-09-11T08:07:23.809Z,98488.77
2022-09-11T08:10:10.169Z,98488.88
2022-09-11T08:12:42.682Z,98494.68
2022-09-11T08:15:11.381Z,98498.87
2022-09-11T08:17:39.889Z,98503.46
2022-09-11T08:20:09.228Z,98511.35
2022-09-11T08:22:38.404Z,98510.50
2022-09-11T08:25:07.398Z,98515.32
2022-09-11T08:27:38.816Z,98514.63
2022-09-11T08:30:08.430Z,98517.71
2022-09-11T08:32:38.102Z,98520.23
2022-09-11T08:35:07.434Z,98520.25
2022-09-11T08:37:35.877Z,98523.93
2022-09-11T08:40:05.677Z,98526.56
2022-09-11T08:42:36.329Z,98526.05
2022-09-11T08:45:07.895Z,98523.97
2022-09-11T08:47:41.793Z,98527.30
2022-09-11T08:50:25.923Z,98529.23
2022-09-11T08:52:57.141Z,98531.64
2022-09-11T08:55:37.160Z,98531.48
2022-09-11T08:58:25.150Z,98530.27
2022-09-11T09:01:24.065Z,98533.23
2022-09-11T09:04:17.335Z,98535.90
2022-09-11T09:06:51.874Z,98537.10
2022-09-11T09:09:43.588Z,98543.59
2022-09-11T09:12:21.282Z,98546.91
2022-09-11T09:15:17.862Z,98549.77
2022-09-11T09:18:02.427Z,98550.15
2022-09-11T09:20:40.515Z,98550.86
2022-09-11T09:23:51.824Z,98555.64
2022-09-11T09:26:21.346Z,98554.84
2022-09-11T09:28:52.896Z,98556.77
2022-09-11T09:31:29.263Z,98555.44
2022-09-11T09:34:20.500Z,98559.81
2022-09-11T09:37:04.338Z,98558.27
2022-09-11T09:39:36.872Z,98559.38
2022-09-11T09:42:16.941Z,98558.54
2022-09-11T09:44:57.635Z,98556.31
2022-09-11T09:47:27.147Z,98559.21
2022-09-11T09:49:59.061Z,98559.58
2022-09-11T09:52:36.206Z,98563.30
2022-09-11T09:55:15.835Z,98571.36
2022-09-11T09:57:44.492Z,98575.15
2022-09-11T10:00:18.320Z,98572.91
2022-09-11T10:02:59.107Z,98572.87
2022-09-11T10:05:35.092Z,98575.80
2022-09-11T10:08:25.821Z,98581.85
2022-09-11T10:10:58.395Z,98581.31
2022-09-11T10:13:30.117Z,98582.88
2022-09-11T10:16:01.854Z,98588.13
2022-09-11T10:18:34.248Z,98588.31
2022-09-11T10:21:12.401Z,98590.55
2022-09-11T10:23:47.893Z,98591.46
2022-09-11T10:26:46.341Z,98582.48
2022-09-11T10:29:20.377Z,98590.99
2022-09-11T10:31:52.219Z,98588.80
2022-09-11T10:34:24.060Z,98592.32
2022-09-11T10:37:00.933Z,98593.45
2022-09-11T10:39:35.495Z,98590.23
2022-09-11T10:42:18.427Z,98590.77
2022-09-11T10:44:48.304Z,98591.58
2022-09-11T10:47:33.306Z,98589.75
2022-09-11T10:50:17.628Z,98592.46
2022-09-11T10:52:58.929Z,98592.35
2022-09-11T10:55:38.528Z,98594.84
2022-09-11T10:58:16.932Z,98589.94
2022-09-11T11:00:46.030Z,98593.26
2022-09-11T11:03:23.464Z,98593.65
2022-09-11T11:05:52.361Z,98593.95
2022-09-11T11:08:33.607Z,98597.40
2022-09-11T11:11:36.503Z,98595.75
2022-09-11T11:14:14.952Z,98602.61
2022-09-11T11:16:55.912Z,98601.67
2022-09-11T11:19:51.843Z,98606.41
2022-09-11T11:23:02.069Z,98607.66
2022-09-11T11:25:50.744Z,98605.55
2022-09-11T11:28:45.117Z,98607.74
2022-09-11T11:31:26.019Z,98611.60
2022-09-11T11:34:09.946Z,98611.23
2022-09-11T11:36:41.934Z,98614.41
2022-09-11T11:39:19.720Z,98616.02
2022-09-11T11:42:07.498Z,98621.32
2022-09-11T11:44:55.718Z,98619.86
2022-09-11T11:47:32.968Z,98623.52
2022-09-11T11:50:05.279Z,98624.53
2022-09-11T11:52:37.211Z,98626.69
2022-09-11T11:55:17.364Z,98632.65
2022-09-11T11:57:58.953Z,98634.05
2022-09-11T12:00:30.638Z,98635.89
2022-09-11T12:03:15.998Z,98631.84
2022-09-11T12:05:45.718Z,98638.58
2022-09-11T12:08:16.354Z,98641.83
2022-09-11T12:10:56.963Z,98641.84
2022-09-11T12:13:36.006Z,98645.99
2022-09-11T12:16:21.196Z,98646.09
2022-09-11T12:19:13.943Z,98645.79
2022-09-11T12:22:07.007Z,98645.36
2022-09-11T12:24:59.174Z,98646.34
2022-09-11T12:27:37.064Z,98645.02
2022-09-11T12:30:10.393Z,98646.73
2022-09-11T12:32:49.080Z,98645.72
2022-09-11T12:35:22.961Z,98648.42
2022-09-11T12:37:58.497Z,98645.51
2022-09-11T12:40:53.559Z,98644.08
2022-09-11T12:43:36.191Z,98643.55
2022-09-11T12:46:13.783Z,98649.34
2022-09-11T12:48:56.289Z,98646.79
2022-09-11T12:51:39.603Z,98648.10
2022-09-11T12:54:21.086Z,98652.14
2022-09-11T12:57:15.444Z,98654.88
2022-09-11T12:59:52.796Z,98656.05
2022-09-11T13:02:51.214Z,98657.88
2022-09-11T13:05:38.224Z,98657.26
2022-09-11T13:08:19.635Z,98659.05
2022-09-11T13:10:48.763Z,98660.89
2022-09-11T13:13:40.488Z,98663.51
2022-09-11T13:16:26.894Z,98669.36
2022-09-11T13:19:22.394Z,98664.50
2022-09-11T13:21:57.352Z,98666.64
2022-09-11T13:24:34.745Z,98667.46
2022-09-11T13:27:26.897Z,98668.05
2022-09-11T13:29:59.553Z,98671.95
2022-09-11T13:32:28.421Z,98673.11
2022-09-11T13:35:02.161Z,98670.83
2022-09-11T13:37:40.248Z,98670.77
2022-09-11T13:40:38.653Z,98675.08
2022-09-11T13:43:08.382Z,98675.84
2022-09-11T13:45:37.425Z,98675.11
2022-09-11T13:48:20.308Z,98674.98
2022-09-11T13:50:52.794Z,98666.56
2022-09-11T13:53:22.771Z,98660.33
2022-09-11T13:55:51.642Z,98665.67
2022-09-11T13:58:24.646Z,98667.41
2022-09-11T14:00:55.814Z,98663.27
2022-09-11T14:03:32.677Z,98662.73
2022-09-11T14:06:16.584Z,98665.85
2022-09-11T14:08:56.774Z,98661.52
2022-09-11T14:11:30.315Z,98666.82
2022-09-11T14:14:12.167Z,98668.07
2022-09-11T14:16:53.117Z,98667.98
2022-09-11T14:19:24.877Z,98665.81
2022-09-11T14:21:54.561Z,98668.32
2022-09-11T14:24:29.937Z,98667.99
2022-09-11T14:27:01.989Z,98670.33
2022-09-11T14:29:33.288Z,98667.16
2022-09-11T14:32:24.570Z,98666.45
2022-09-11T14:34:53.256Z,98669.17
2022-09-11T14:37:22.917Z,98668.27
2022-09-11T14:40:00.703Z,98665.31
2022-09-11T14:42:32.211Z,98664.40
2022-09-11T14:45:09.782Z,98660.64
2022-09-11T14:47:39.316Z,98663.55
2022-09-11T14:50:12.708Z,98662.88
2022-09-11T14:52:46.689Z,98670.44
2022-09-11T14:55:20.457Z,98670.48
2022-09-11T14:57:49.436Z,98672.56
2022-09-11T15:00:19.527Z,98672.10
2022-09-11T15:02:48.336Z,98669.28
2022-09-11T15:05:23.281Z,98670.45
2022-09-11T15:07:53.788Z,98673.06
2022-09-11T15:10:22.867Z,98671.02
2022-09-11T15:12:51.415Z,98672.79
2022-09-11T15:15:20.959Z,98673.03
2022-09-11T15:17:49.888Z,98674.52
2022-09-11T15:20:19.464Z,98677.17
2022-09-11T15:22:49.196Z,98674.41
2022-09-11T15:25:18.608Z,98676.52
2022-09-11T15:27:51.301Z,98676.60
2022-09-11T15:30:23.186Z,98677.51
2022-09-11T15:32:51.867Z,98678.66
2022-09-11T15:35:20.896Z,98677.86
2022-09-11T15:37:50.257Z,98678.96
2022-09-11T15:40:19.059Z,98680.10
2022-09-11T15:42:50.475Z,98677.70
2022-09-11T15:45:18.948Z,98680.33
2022-09-11T15:47:47.849Z,98678.96
2022-09-11T15:50:21.976Z,98680.36
2022-09-11T15:52:50.629Z,98684.96
2022-09-11T15:55:19.953Z,98688.06
2022-09-11T15:57:48.679Z,98690.05
2022-09-11T16:00:17.429Z,98689.80
2022-09-11T16:02:46.474Z,98692.10
2022-09-11T16:05:16.043Z,98689.28
2022-09-11T16:07:44.576Z,98693.77
2022-09-11T16:10:13.879Z,98692.06
2022-09-11T16:12:43.112Z,98690.72
2022-09-11T16:15:12.812Z,98692.48
2022-09-11T16:17:41.776Z,98694.16
2022-09-11T16:20:10.569Z,98694.43
2022-09-11T16:22:39.110Z,98691.37
2022-09-11T16:25:08.661Z,98692.10
2022-09-11T16:27:37.505Z,98692.84
2022-09-11T16:30:41.626Z,98688.33
2022-09-11T16:32:59.075Z,98687.50
2022-09-11T16:35:27.918Z,98687.14
2022-09-11T16:37:56.489Z,98685.89
2022-09-11T16:40:26.016Z,98688.54
2022-09-11T16:42:54.862Z,98687.80
2022-09-11T16:45:23.457Z,98689.77
2022-09-11T16:47:52.744Z,98691.84
2022-09-11T16:50:22.012Z,98692.05
2022-09-11T16:52:51.244Z,98692.10
2022-09-11T16:55:20.735Z,98688.39
2022-09-11T16:57:49.586Z,98692.75
2022-09-11T17:00:18.209Z,98692.14
2022-09-11T17:02:47.171Z,98694.30
2022-09-11T17:05:17.859Z,98699.00
2022-09-11T17:07:46.239Z,98701.02
2022-09-11T17:10:14.968Z,98705.31
2022-09-11T17:12:43.717Z,98701.16
2022-09-11T17:15:12.477Z,98703.11
2022-09-11T17:17:44.005Z,98701.96
2022-09-11T17:20:12.813Z,98704.44
2022-09-11T17:22:41.697Z,98711.74
2022-09-11T17:25:12.377Z,98708.97
2022-09-11T17:27:40.857Z,98713.05
2022-09-11T17:30:10.508Z,98714.45
2022-09-11T17:32:39.802Z,98716.58
2022-09-11T17:35:08.560Z,98719.63
2022-09-11T17:37:37.375Z,98722.48
2022-09-11T17:40:08.068Z,98721.77
2022-09-11T17:42:36.770Z,98717.27
2022-09-11T17:45:08.059Z,98716.98
2022-09-11T17:47:37.676Z,98717.48
2022-09-11T17:50:07.268Z,98720.36
2022-09-11T17:52:37.630Z,98721.73
2022-09-11T17:55:07.824Z,98720.40
2022-09-11T17:57:36.520Z,98719.50
2022-09-11T18:00:06.345Z,98718.69
2022-09-11T18:02:41.506Z,98719.30
2022-09-11T18:05:10.089Z,98717.34
2022-09-11T18:07:39.423Z,98715.83
2022-09-11T18:10:09.356Z,98718.20
2022-09-11T18:12:38.015Z,98721.40
2022-09-11T18:15:07.367Z,98722.09
2022-09-11T18:17:36.893Z,98722.75
2022-09-11T18:20:06.760Z,98721.66
2022-09-11T18:22:39.863Z,98725.12
2022-09-11T18:25:10.037Z,98724.11
2022-09-11T18:27:40.825Z,98728.20
2022-09-11T18:30:10.656Z,98728.09
2022-09-11T18:32:39.976Z,98729.67
2022-09-11T18:35:10.580Z,98732.63
2022-09-11T18:37:39.400Z,98732.08
2022-09-11T18:40:08.418Z,98735.89
2022-09-11T18:42:41.477Z,98735.85
2022-09-11T18:45:10.759Z,98740.64
2022-09-11T18:47:39.480Z,98739.09
2022-09-11T18:50:09.710Z,98737.20
2022-09-11T18:52:38.881Z,98737.27
2022-09-11T18:55:07.644Z,98735.23
2022-09-11T18:57:41.161Z,98735.91
2022-09-11T19:00:18.836Z,98737.27
2022-09-11T19:02:48.806Z,98739.70
2022-09-11T19:05:19.063Z,98739.55
2022-09-11T19:07:48.658Z,98741.46
2022-09-11T19:10:18.286Z,98746.63
2022-09-11T19:12:48.687Z,98751.43
2022-09-11T19:15:17.602Z,98749.33
2022-09-11T19:17:47.961Z,98752.48
2022-09-11T19:20:20.115Z,98753.88
2022-09-11T19:22:49.107Z,98753.31
2022-09-11T19:25:18.010Z,98747.88
2022-09-11T19:27:47.414Z,98746.85
2022-09-11T19:30:17.002Z,98753.25
2022-09-11T19:32:45.512Z,98755.52
2022-09-11T19:35:14.810Z,98762.52
2022-09-11T19:37:43.890Z,98758.56
2022-09-11T19:40:12.470Z,98762.86
2022-09-11T19:42:41.467Z,98768.33
2022-09-11T19:45:10.350Z,98767.73
2022-09-11T19:47:38.907Z,98767.42
2022-09-11T19:50:08.919Z,98771.16
2022-09-11T19:52:38.273Z,98775.79
2022-09-11T19:55:07.212Z,98781.47
2022-09-11T19:57:36.068Z,98780.71
2022-09-11T20:00:05.858Z,98784.34
2022-09-11T20:02:35.579Z,98787.59
2022-09-11T20:05:04.320Z,98786.48
2022-09-11T20:07:33.602Z,98783.70
2022-09-11T20:10:02.474Z,98786.87
2022-09-11T20:12:32.253Z,98786.05
2022-09-11T20:15:00.968Z,98787.42
2022-09-11T20:17:29.906Z,98790.92
2022-09-11T20:20:02.413Z,98787.67
2022-09-11T20:22:31.607Z,98787.60
2022-09-11T20:25:00.675Z,98782.92
2022-09-11T20:27:29.692Z,98784.95
2022-09-11T20:30:00.506Z,98787.00
2022-09-11T20:32:29.841Z,98788.27
2022-09-11T20:35:00.480Z,98785.30
2022-09-11T20:37:30.055Z,98787.43
2022-09-11T20:40:00.448Z,98788.88
2022-09-11T20:42:29.653Z,98788.88
2022-09-11T20:45:00.460Z,98791.46
2022-09-11T20:47:29.358Z,98785.65
2022-09-11T20:49:58.344Z,98792.69
2022-09-11T20:52:26.983Z,98795.09
2022-09-11T20:54:55.456Z,98794.52
2022-09-11T20:57:24.601Z,98792.11
2022-09-11T20:59:54.099Z,98792.43
2022-09-11T21:02:22.961Z,98787.98
2022-09-11T21:04:52.297Z,98787.22
2022-09-11T21:07:20.798Z,98790.16
2022-09-11T21:09:49.296Z,98787.64
2022-09-11T21:12:19.809Z,98787.81
2022-09-11T21:14:48.252Z,98790.17
2022-09-11T21:17:16.800Z,98787.13
2022-09-11T21:19:46.085Z,98790.07
2022-09-11T21:22:14.648Z,98789.60
2022-09-11T21:24:43.591Z,98794.86
2022-09-11T21:27:12.832Z,98796.15
2022-09-11T21:29:41.776Z,98799.89
2022-09-11T21:32:11.022Z,98801.30
2022-09-11T21:34:40.033Z,98804.34
2022-09-11T21:37:08.736Z,98806.27
2022-09-11T21:39:37.675Z,98804.01
2022-09-11T21:42:11.183Z,98806.64
2022-09-11T21:44:40.691Z,98805.26
2022-09-11T21:47:09.902Z,98802.30
2022-09-11T21:49:38.374Z,98805.23
2022-09-11T21:52:07.799Z,98804.88
2022-09-11T21:54:36.695Z,98802.08
2022-09-11T21:57:06.201Z,98801.91
2022-09-11T21:59:35.054Z,98801.44
2022-09-11T22:02:04.811Z,98802.14
2022-09-11T22:04:34.527Z,98800.55
2022-09-11T22:07:03.116Z,98799.48
2022-09-11T22:09:31.981Z,98801.73
2022-09-11T22:12:00.483Z,98800.65
2022-09-11T22:14:31.043Z,98802.25
2022-09-11T22:17:00.240Z,98798.91
2022-09-11T22:19:28.991Z,98801.04
2022-09-11T22:21:57.849Z,98802.27
2022-09-11T22:24:26.912Z,98800.08
2022-09-11T22:26:56.176Z,98799.23
2022-09-11T22:29:24.789Z,98796.79
2022-09-11T22:31:54.307Z,98799.20
2022-09-11T22:34:23.761Z,98797.83
2022-09-11T22:36:52.323Z,98799.04
2022-09-11T22:39:22.372Z,98797.63
2022-09-11T22:41:50.986Z,98800.95
2022-09-11T22:44:20.261Z,98797.83
2022-09-11T22:46:49.511Z,98797.00
2022-09-11T22:49:18.046Z,98802.42
2022-09-11T22:51:46.658Z,98797.76
2022-09-11T22:54:16.341Z,98799.18
2022-09-11T22:56:44.896Z,98797.98
2022-09-11T22:59:13.981Z,98799.08
2022-09-11T23:01:43.443Z,98793.48
2022-09-11T23:04:12.409Z,98794.20
2022-09-11T23:07:00.047Z,98792.80
2022-09-11T23:09:29.305Z,98792.85
2022-09-11T23:11:57.792Z,98796.69
2022-09-11T23:14:26.724Z,98797.55
2022-09-11T23:16:56.335Z,98797.56
2022-09-11T23:19:25.225Z,98795.17
2022-09-11T23:21:53.755Z,98796.23
2022-09-11T23:24:22.728Z,98797.84
2022-09-11T23:26:51.680Z,98797.17
2022-09-11T23:29:20.575Z,98802.05
2022-09-11T23:31:49.467Z,98799.73
2022-09-11T23:34:18.268Z,98797.23
2022-09-11T23:36:47.889Z,98797.86
2022-09-11T23:39:16.577Z,98793.73
2022-09-11T23:41:45.468Z,98796.36
2022-09-11T23:44:14.233Z,98799.23
2022-09-11T23:46:43.227Z,98797.85
2022-09-11T23:49:12.861Z,98796.13
2022-09-11T23:51:42.669Z,98797.50
2022-09-11T23:54:11.727Z,98797.33
2022-09-11T23:56:40.171Z,98798.35
2022-09-11T23:59:09.329Z,98793.65
